Sunday, August 19, 2018, 1:53 PM EDT
Back to Local

KROC, Greater Rochester International

Location: Rochester, NY, United States Lat: 43.117
Local Time: 1:53 PM EDT (17:53 GMT) Lon: -77.683
Time Zone: US/Eastern Elev: 557 ft

Show me the last for .
Show Coded

Time T Td Feel RH Dir Speed Gust Alt SLP Vis Weather Sky Remarks
2018-08-19 12:54 77 62 79 60 60° 7 - 30.03 30.03 10 FEW034 BKN045 OVC200 None
2018-08-19 11:54 74 63 77 68 110° 5 - 30.04 30.04 10 SCT035 BKN180 OVC220 None
2018-08-19 10:54 73 63 77 70 110° 7 - 30.04 30.04 10 FEW030 FEW150 OVC200 None
2018-08-19 09:54 70 64 - 81 - Calm - 30.04 30.04 10 FEW035 FEW100 BKN200 None
2018-08-19 08:54 66 63 - 89 - Calm - 30.03 30.03 10 FEW035 SCT160 BKN200 None
2018-08-19 07:54 62 61 - 96 - Calm - 30.02 30.02 10 FEW030 FEW055 SCT140 BKN200 24-hr Precip Total (8am): 0.02"
6-hr Min Temp (8am): 60.1°F
6-hr Max Temp (8am): 63.0°F
2018-08-19 06:54 60 60 - 100 230° 3 - 30.01 30.01 10 FEW030 SCT100 BKN200 None
2018-08-19 05:54 61 60 - 96 - Calm - 29.99 30.00 10 FEW042 SCT250 None
2018-08-19 04:54 61 61 - 100 220° 3 - 29.98 29.98 10 SCT042 SCT150 BKN200 None
2018-08-19 03:54 61 61 - 100 - Calm - 29.97 29.98 10 SCT042 SCT150 BKN200 None
2018-08-19 02:54 62 61 - 96 250° 3 - 29.97 29.97 10 FEW035 SCT044 SCT150 OVC200 None
2018-08-19 01:54 63 62 - 96 - Calm - 29.97 29.98 10 FEW050 SCT150 OVC200 6-hr Min Temp (2am): 62.1°F
6-hr Max Temp (2am): 69.1°F
2018-08-19 00:54 63 62 - 96 - Calm - 29.97 29.98 10 FEW050 SCT150 BKN200 24-hr Min Temp (1am): 63.0°F
24-hr Max Temp (1am): 73.9°F
2018-08-18 23:54 64 64 - 100 - Calm - 29.98 29.98 10 FEW050 BKN150 OVC200 None
2018-08-18 22:54 65 64 - 96 - Calm - 29.98 29.98 10 FEW050 BKN150 OVC200 None
2018-08-18 21:54 66 64 - 93 - Calm - 29.98 29.98 10 FEW037 BKN160 OVC200 None
2018-08-18 20:54 67 64 - 90 220° 3 - 29.98 29.98 10 FEW035 SCT048 BKN160 BKN200 None
2018-08-18 19:54 69 63 - 80 330° 5 - 29.96 29.96 10 FEW028 FEW080 SCT160 BKN200 6-hr Min Temp (8pm): 69.1°F
6-hr Max Temp (8pm): 73.9°F
2018-08-18 18:54 71 63 76 75 340° 6 - 29.95 29.96 10 FEW028 SCT140 OVC200 None
2018-08-18 17:54 73 62 77 68 350° 5 - 29.95 29.95 10 FEW028 SCT045 BKN200 None
2018-08-18 16:54 73 61 77 65 360° 12 - 29.95 29.95 10 FEW028 BKN035 BKN170 None
2018-08-18 16:01 73 61 77 65 10° 12 - 29.96 - 10 FEW028 BKN035 BKN120 None
2018-08-18 15:54 73 62 77 68 30° 10 - 29.96 29.96 10 FEW020 BKN028 BKN120 None
2018-08-18 14:54 73 62 77 68 40° 12 - 29.96 29.96 10 SCT024 BKN028 None
2018-08-18 13:54 71 64 76 78 20° 15 - 29.96 29.96 10 BKN019 OVC025 6-hr Precip Total (2pm): 0.02"
6-hr Min Temp (2pm): 68.0°F
6-hr Max Temp (2pm): 71.1°F

Support USWX by starting your Amazon purchase here.